Time;durP1;ratioP1;P1;durP2;ratioP2;P2;SDS_P1;SDS_P2;PMS_P1;PMS_P2;Temp;Humidity;BMP_temperature;BMP_pressure;BME280_temperature;BME280_humidity;BME280_pressure;Samples;Min_cycle;Max_cycle;Signal;HPM_P1;HPM_P2
2023/05/26 04:04:53;;;;;;;3.50;2.90;;;12.50;99.90;;;;;;5680417;23;20587;-63
2023/05/26 04:07:19;;;;;;;3.43;3.13;;;12.50;99.90;;;;;;4976904;28;20435;-64
2023/05/26 04:09:45;;;;;;;4.93;2.70;;;12.60;99.90;;;;;;4977197;28;20182;-66
2023/05/26 04:12:10;;;;;;;2.30;2.20;;;12.70;99.90;;;;;;4976912;28;20288;-64
2023/05/26 04:14:36;;;;;;;1.80;1.70;;;12.80;99.90;;;;;;4976627;28;20194;-65
2023/05/26 04:17:01;;;;;;;3.40;3.10;;;12.90;99.90;;;;;;4976794;28;20175;-65
2023/05/26 04:19:28;;;;;;;3.00;2.53;;;12.90;99.90;;;;;;4976669;28;20249;-66
2023/05/26 04:21:53;;;;;;;4.47;3.60;;;13.10;99.90;;;;;;4959388;28;20429;-64
2023/05/26 04:24:19;;;;;;;3.53;3.20;;;13.20;99.90;;;;;;4976752;28;20603;-66
2023/05/26 04:26:45;;;;;;;4.80;3.43;;;13.30;99.90;;;;;;4976786;28;20183;-66
2023/05/26 04:29:11;;;;;;;3.40;3.10;;;13.40;99.90;;;;;;4959350;28;20186;-63
2023/05/26 04:31:41;;;;;;;3.40;2.60;;;13.40;99.90;;;;;;4977306;28;20206;-68
2023/05/26 04:34:06;;;;;;;2.37;2.17;;;13.50;99.90;;;;;;4975408;28;21016;-66
2023/05/26 04:36:32;;;;;;;3.13;2.40;;;13.60;99.90;;;;;;4976071;28;20514;-65
2023/05/26 04:38:58;;;;;;;3.47;3.17;;;13.70;99.90;;;;;;4976489;28;20179;-64
2023/05/26 04:41:24;;;;;;;8.10;3.10;;;13.80;99.90;;;;;;4958848;28;20446;-65
2023/05/26 04:43:50;;;;;;;2.80;2.60;;;13.90;99.90;;;;;;4958009;28;20654;-67
2023/05/26 04:46:16;;;;;;;3.70;3.40;;;14.00;99.90;;;;;;4975501;28;20451;-67
2023/05/26 04:48:42;;;;;;;3.70;3.33;;;14.20;99.90;;;;;;4958500;28;20434;-66
2023/05/26 04:51:08;;;;;;;3.77;3.43;;;14.30;99.90;;;;;;4976172;28;20458;-68
2023/05/26 04:53:34;;;;;;;2.97;2.70;;;14.60;99.90;;;;;;4975794;28;20412;-64
2023/05/26 04:56:01;;;;;;;3.70;3.07;;;14.80;99.90;;;;;;4976120;28;20199;-66
2023/05/26 04:58:28;;;;;;;3.67;3.30;;;15.00;99.90;;;;;;4976178;28;20452;-67
2023/05/26 05:00:55;;;;;;;3.70;3.50;;;15.00;99.90;;;;;;4982196;28;20426;-65
2023/05/26 05:03:23;;;;;;;3.57;3.27;;;15.10;99.90;;;;;;4977554;28;20936;-67
2023/05/26 05:05:49;;;;;;;2.43;2.23;;;15.20;99.90;;;;;;4995156;28;20462;-66
2023/05/26 05:08:14;;;;;;;5.33;3.43;;;15.30;99.90;;;;;;4994754;28;20856;-68
2023/05/26 05:10:40;;;;;;;2.50;2.30;;;15.30;99.90;;;;;;4994890;28;20214;-66
2023/05/26 05:13:06;;;;;;;4.30;3.33;;;15.30;99.90;;;;;;4973247;28;20708;-64
2023/05/26 05:15:31;;;;;;;3.60;3.30;;;15.40;99.90;;;;;;4975882;28;20596;-63
2023/05/26 05:18:02;;;;;;;3.00;2.40;;;15.40;99.90;;;;;;4987279;28;20430;-65
2023/05/26 05:20:27;;;;;;;4.10;3.30;;;15.50;99.90;;;;;;4975878;28;20527;-63
2023/05/26 05:22:54;;;;;;;4.87;4.47;;;15.60;99.90;;;;;;4975698;28;20510;-67
2023/05/26 05:25:20;;;;;;;3.67;3.37;;;15.60;99.90;;;;;;4986132;28;20199;-69
2023/05/26 05:27:45;;;;;;;7.20;4.03;;;15.60;99.90;;;;;;4964969;28;20453;-67
2023/05/26 05:30:11;;;;;;;12.53;2.83;;;15.60;99.90;;;;;;4975663;28;20173;-67
2023/05/26 05:32:37;;;;;;;4.67;4.27;;;15.70;99.90;;;;;;4975004;28;20207;-70
2023/05/26 05:35:04;;;;;;;4.90;3.47;;;15.80;99.90;;;;;;4974561;28;20447;-71
2023/05/26 05:37:29;;;;;;;4.40;3.70;;;15.90;99.90;;;;;;4979185;28;20203;-65
2023/05/26 05:39:55;;;;;;;4.33;3.90;;;16.00;99.90;;;;;;4994371;28;20484;-68
2023/05/26 05:42:24;;;;;;;5.40;4.20;;;16.10;99.90;;;;;;4994376;28;20205;-63
2023/05/26 05:44:49;;;;;;;4.07;3.77;;;16.20;99.90;;;;;;4980208;28;20204;-67
2023/05/26 05:47:15;;;;;;;5.70;3.70;;;16.30;99.90;;;;;;4977724;28;20416;-69
2023/05/26 05:49:41;;;;;;;3.50;3.20;;;16.40;99.90;;;;;;4974735;28;20172;-63
2023/05/26 05:52:06;;;;;;;4.50;3.67;;;16.60;99.90;;;;;;4974874;28;20574;-63
2023/05/26 05:54:32;;;;;;;4.67;3.67;;;16.70;99.90;;;;;;4986929;28;20199;-62
2023/05/26 05:56:57;;;;;;;7.33;4.47;;;16.90;99.90;;;;;;4986783;28;20545;-62
2023/05/26 05:59:23;;;;;;;6.13;3.23;;;17.10;99.90;;;;;;4974972;28;20183;-62
2023/05/26 06:01:48;;;;;;;4.20;3.30;;;17.20;99.20;;;;;;4973575;28;20246;-61
2023/05/26 06:04:14;;;;;;;3.33;3.13;;;17.20;99.30;;;;;;4978677;28;20696;-60
2023/05/26 06:06:40;;;;;;;4.43;3.73;;;17.20;98.80;;;;;;4992763;28;20189;-63
2023/05/26 06:09:07;;;;;;;3.33;2.77;;;17.20;99.10;;;;;;4994080;28;20644;-64
2023/05/26 06:11:33;;;;;;;3.53;3.23;;;17.20;98.80;;;;;;4992931;28;20203;-63
2023/05/26 06:13:58;;;;;;;3.07;2.77;;;17.20;99.10;;;;;;4993738;28;20406;-63
2023/05/26 06:16:24;;;;;;;2.97;2.67;;;17.40;98.90;;;;;;4993582;28;20172;-63
2023/05/26 06:18:50;;;;;;;4.13;3.73;;;17.50;98.50;;;;;;4989144;28;20172;-63
2023/05/26 06:21:15;;;;;;;3.80;3.40;;;17.40;98.70;;;;;;4983970;28;20171;-63
2023/05/26 06:23:41;;;;;;;3.30;3.00;;;17.40;99.60;;;;;;4993646;28;20206;-62
2023/05/26 06:26:07;;;;;;;3.93;3.53;;;17.30;99.30;;;;;;4994007;28;20668;-62
2023/05/26 06:28:32;;;;;;;3.93;3.53;;;17.40;99.10;;;;;;4993731;28;20184;-61
2023/05/26 06:30:58;;;;;;;4.03;3.73;;;17.40;98.80;;;;;;4984784;28;20203;-62
2023/05/26 06:33:24;;;;;;;3.77;2.90;;;17.40;99.50;;;;;;4983372;28;20226;-62
2023/05/26 06:35:49;;;;;;;5.90;3.70;;;17.30;98.70;;;;;;4974163;28;20199;-61
2023/05/26 06:38:15;;;;;;;3.70;2.60;;;17.30;99.10;;;;;;4975200;28;20421;-63
2023/05/26 06:40:40;;;;;;;4.57;3.80;;;17.20;99.40;;;;;;4993741;28;20209;-63
2023/05/26 06:43:06;;;;;;;4.30;3.23;;;17.20;99.00;;;;;;4993674;28;20182;-64
2023/05/26 06:45:32;;;;;;;5.20;3.43;;;17.20;99.00;;;;;;4978896;28;20194;-62
2023/05/26 06:47:58;;;;;;;5.83;3.60;;;17.30;99.30;;;;;;4974599;28;20428;-61
2023/05/26 06:50:23;;;;;;;3.63;3.03;;;17.30;98.90;;;;;;4974457;28;20652;-63
2023/05/26 06:52:49;;;;;;;4.97;3.50;;;17.40;98.80;;;;;;4974072;28;20176;-60
2023/05/26 06:55:16;;;;;;;4.70;3.10;;;17.40;99.10;;;;;;4973562;28;20561;-62
2023/05/26 06:57:42;;;;;;;3.40;3.10;;;17.50;98.90;;;;;;4974419;28;20457;-62
2023/05/26 07:00:08;;;;;;;4.60;3.87;;;17.60;98.80;;;;;;4974399;28;20433;-63
2023/05/26 07:02:34;;;;;;;4.70;3.57;;;17.70;99.00;;;;;;4974645;28;20267;-63
2023/05/26 07:04:59;;;;;;;4.30;3.90;;;17.70;98.70;;;;;;4973330;28;20482;-64
2023/05/26 07:07:25;;;;;;;2.97;2.73;;;17.90;99.00;;;;;;4973958;28;20690;-62
2023/05/26 07:09:51;;;;;;;3.80;3.50;;;18.10;98.60;;;;;;4974099;28;20508;-62
2023/05/26 07:12:16;;;;;;;3.40;3.20;;;18.20;98.40;;;;;;4973853;28;20210;-62
2023/05/26 07:14:42;;;;;;;5.20;4.10;;;18.20;99.00;;;;;;4973989;28;20189;-62
2023/05/26 07:17:07;;;;;;;3.63;3.33;;;18.20;98.30;;;;;;4974483;28;20911;-63
2023/05/26 07:19:33;;;;;;;3.60;3.30;;;18.20;98.70;;;;;;4977078;28;20711;-62
2023/05/26 07:21:59;;;;;;;4.07;3.33;;;18.30;98.20;;;;;;4993607;28;20206;-62
2023/05/26 07:24:25;;;;;;;4.33;3.93;;;18.50;98.10;;;;;;4993201;28;20211;-62
2023/05/26 07:26:50;;;;;;;6.73;3.57;;;18.90;98.00;;;;;;4993724;28;20501;-62
2023/05/26 07:29:16;;;;;;;3.70;3.50;;;19.40;97.00;;;;;;4993580;28;20180;-62
2023/05/26 07:31:41;;;;;;;3.10;2.90;;;20.00;96.40;;;;;;4994384;28;20287;-62
2023/05/26 07:34:07;;;;;;;3.00;2.80;;;20.70;96.10;;;;;;4979182;28;20196;-61
2023/05/26 07:36:34;;;;;;;4.87;4.00;;;21.50;94.50;;;;;;4977595;28;20293;-61
2023/05/26 07:39:00;;;;;;;5.47;3.37;;;22.50;92.90;;;;;;4977391;28;20180;-62
2023/05/26 07:41:25;;;;;;;3.40;3.10;;;23.60;91.60;;;;;;4977471;28;20385;-61
2023/05/26 07:43:51;;;;;;;3.70;3.30;;;24.80;90.90;;;;;;4976855;28;20188;-60
2023/05/26 07:46:17;;;;;;;3.43;3.17;;;25.90;89.30;;;;;;4977511;28;20176;-62
2023/05/26 07:48:42;;;;;;;3.70;3.40;;;27.10;84.90;;;;;;4993220;28;20184;-62
2023/05/26 07:51:08;;;;;;;3.70;3.30;;;28.20;82.40;;;;;;4996664;28;20199;-63
2023/05/26 07:53:35;;;;;;;3.50;3.17;;;29.20;79.20;;;;;;4991013;28;20570;-61
2023/05/26 07:56:00;;;;;;;4.27;3.97;;;30.00;76.10;;;;;;4972772;28;20212;-61
2023/05/26 07:58:26;;;;;;;3.53;3.33;;;30.60;71.60;;;;;;4977193;28;20412;-62
2023/05/26 08:00:51;;;;;;;4.43;4.03;;;31.00;69.60;;;;;;4977114;28;20169;-61
2023/05/26 08:03:17;;;;;;;3.83;3.53;;;31.20;69.20;;;;;;4976871;28;20173;-61
2023/05/26 08:05:44;;;;;;;4.00;3.47;;;31.20;67.70;;;;;;4976732;28;20208;-63
2023/05/26 08:08:09;;;;;;;4.33;3.93;;;30.90;66.00;;;;;;4976907;28;20204;-63
2023/05/26 08:10:35;;;;;;;3.97;3.57;;;31.20;66.90;;;;;;4976788;28;20782;-62
2023/05/26 08:13:01;;;;;;;4.77;3.43;;;31.40;65.50;;;;;;4976965;28;20180;-64
2023/05/26 08:15:27;;;;;;;4.20;3.90;;;31.50;65.10;;;;;;4980593;28;20450;-63
2023/05/26 08:17:52;;;;;;;4.23;3.60;;;31.70;66.50;;;;;;4995460;28;20274;-64
2023/05/26 08:20:18;;;;;;;3.90;3.60;;;32.00;66.20;;;;;;4992442;28;20203;-64
2023/05/26 08:22:44;;;;;;;4.00;3.70;;;32.00;63.30;;;;;;4996208;28;20577;-65
2023/05/26 08:25:09;;;;;;;4.20;3.90;;;32.40;62.80;;;;;;4994688;28;20241;-64
2023/05/26 08:27:35;;;;;;;3.93;3.67;;;32.50;60.00;;;;;;4976455;28;20267;-65
2023/05/26 08:30:01;;;;;;;3.73;3.43;;;32.00;61.30;;;;;;4976606;28;20555;-65
2023/05/26 08:32:26;;;;;;;3.70;3.50;;;31.80;61.60;;;;;;4975037;28;20619;-64
2023/05/26 08:34:52;;;;;;;3.77;3.27;;;31.40;61.60;;;;;;4975555;28;20687;-65
2023/05/26 08:37:18;;;;;;;3.63;3.33;;;31.10;62.40;;;;;;4959266;28;20180;-65
2023/05/26 08:39:44;;;;;;;3.67;3.37;;;31.10;63.00;;;;;;4976004;28;20192;-63
2023/05/26 08:42:16;;;;;;;3.83;3.53;;;31.40;62.80;;;;;;4978350;28;20431;-65
2023/05/26 08:44:44;;;;;;;3.40;3.20;;;31.80;63.80;;;;;;4975016;28;20925;-65
2023/05/26 08:47:11;;;;;;;4.00;3.60;;;32.20;61.10;;;;;;4976420;28;20443;-65
2023/05/26 08:49:41;;;;;;;4.07;3.77;;;31.60;61.10;;;;;;4981135;28;20423;-64
2023/05/26 08:52:10;;;;;;;4.53;4.13;;;31.80;61.50;;;;;;4971519;28;20462;-64
2023/05/26 08:54:36;;;;;;;4.57;4.27;;;31.80;61.40;;;;;;4974817;28;20946;-64
2023/05/26 08:57:04;;;;;;;3.50;3.20;;;31.60;59.80;;;;;;4975592;28;20431;-64
2023/05/26 08:59:31;;;;;;;4.17;3.83;;;31.30;61.50;;;;;;4956616;29;20595;-65
2023/05/26 09:01:57;;;;;;;3.90;3.63;;;31.20;61.00;;;;;;4974400;28;20515;-64
2023/05/26 09:04:23;;;;;;;4.33;4.00;;;31.30;59.80;;;;;;4982928;28;20526;-64
2023/05/26 09:06:48;;;;;;;3.70;3.40;;;31.10;60.90;;;;;;4959039;28;20214;-64
2023/05/26 09:09:16;;;;;;;3.57;3.37;;;31.20;61.00;;;;;;4976061;28;20177;-64
2023/05/26 09:11:44;;;;;;;4.23;3.93;;;31.40;61.20;;;;;;4975586;28;20199;-65
2023/05/26 09:14:17;;;;;;;3.73;3.47;;;32.00;61.70;;;;;;4990793;28;20960;-65
2023/05/26 09:16:43;;;;;;;4.00;3.67;;;32.30;60.00;;;;;;4975767;28;20491;-65
2023/05/26 09:19:18;;;;;;;3.63;3.33;;;32.40;59.60;;;;;;4978680;28;20816;-64
2023/05/26 09:21:49;;;;;;;3.73;3.43;;;32.60;58.80;;;;;;4985288;28;20426;-65
2023/05/26 09:24:16;;;;;;;6.53;3.30;;;32.60;58.60;;;;;;4985421;28;20527;-65
2023/05/26 09:26:45;;;;;;;4.30;3.37;;;32.20;59.20;;;;;;4980750;28;20446;-66
2023/05/26 09:29:11;;;;;;;3.40;3.20;;;32.20;58.50;;;;;;4978532;28;20558;-66
2023/05/26 09:31:38;;;;;;;4.30;3.37;;;32.40;58.60;;;;;;4977515;28;20569;-66
2023/05/26 09:34:04;;;;;;;3.60;3.30;;;32.30;58.50;;;;;;4991783;28;20223;-66
2023/05/26 09:36:33;;;;;;;5.80;4.10;;;32.40;59.40;;;;;;4974799;28;20435;-65
2023/05/26 09:39:00;;;;;;;4.30;3.90;;;32.50;59.00;;;;;;4985206;28;20763;-66
2023/05/26 09:41:36;;;;;;;4.40;3.77;;;32.50;59.10;;;;;;4984639;28;20836;-66
2023/05/26 09:44:15;;;;;;;3.97;3.60;;;32.70;59.00;;;;;;4980308;28;20426;-64
2023/05/26 09:46:43;;;;;;;3.73;3.50;;;32.90;60.00;;;;;;4975264;28;20898;-63
2023/05/26 09:49:14;;;;;;;4.20;3.90;;;33.10;59.50;;;;;;4975091;28;20509;-63
2023/05/26 09:51:41;;;;;;;4.10;3.80;;;33.10;59.80;;;;;;4986408;28;20490;-63
2023/05/26 09:54:09;;;;;;;3.20;3.00;;;33.20;59.30;;;;;;4993677;28;20426;-64
2023/05/26 09:56:41;;;;;;;4.03;3.70;;;33.60;59.90;;;;;;4991494;28;20438;-65
2023/05/26 09:59:08;;;;;;;4.63;4.23;;;33.90;59.30;;;;;;4990168;28;20916;-65
2023/05/26 10:01:36;;;;;;;3.60;3.40;;;34.10;58.20;;;;;;4993941;28;20422;-64
2023/05/26 10:04:06;;;;;;;4.33;4.03;;;34.00;59.40;;;;;;4993247;28;20430;-65
2023/05/26 10:06:34;;;;;;;4.47;4.07;;;34.00;59.00;;;;;;4985944;28;20439;-64
2023/05/26 10:09:01;;;;;;;4.00;3.70;;;33.60;59.30;;;;;;4974602;28;20455;-62
2023/05/26 10:11:29;;;;;;;3.87;3.57;;;33.40;58.50;;;;;;4975807;28;20439;-66
2023/05/26 10:13:55;;;;;;;5.63;3.90;;;33.10;58.70;;;;;;4974064;28;20426;-64
2023/05/26 10:16:22;;;;;;;4.07;3.70;;;32.70;58.90;;;;;;4957509;28;21087;-65
2023/05/26 10:18:49;;;;;;;3.90;3.50;;;32.50;59.70;;;;;;4974631;28;20926;-63
2023/05/26 10:21:20;;;;;;;3.43;3.13;;;32.60;60.10;;;;;;4957057;28;20455;-67
2023/05/26 10:24:13;;;;;;;3.80;3.50;;;32.60;60.60;;;;;;4964081;28;20423;-65
2023/05/26 10:26:54;;;;;;;4.10;3.73;;;32.40;59.80;;;;;;4993668;28;20509;-65
2023/05/26 10:29:28;;;;;;;4.70;3.80;;;32.20;60.00;;;;;;4980640;28;20427;-64
2023/05/26 10:31:53;;;;;;;6.77;4.50;;;31.30;61.30;;;;;;4973610;28;20420;-64
2023/05/26 10:34:36;;;;;;;3.83;3.50;;;30.90;62.50;;;;;;4967918;28;20551;-67
2023/05/26 10:37:11;;;;;;;3.57;3.30;;;30.80;61.40;;;;;;4973922;28;20266;-64
2023/05/26 10:39:37;;;;;;;4.60;4.17;;;30.70;61.70;;;;;;4974991;28;20423;-64
2023/05/26 10:42:18;;;;;;;3.60;3.30;;;30.60;62.00;;;;;;4978343;28;20432;-63
2023/05/26 10:44:46;;;;;;;4.13;3.83;;;30.30;62.80;;;;;;4993389;28;20193;-64
2023/05/26 10:47:18;;;;;;;4.57;4.13;;;30.20;64.50;;;;;;4994024;28;20828;-62
2023/05/26 10:49:58;;;;;;;3.90;3.50;;;30.10;65.00;;;;;;4957960;28;20934;-65
2023/05/26 10:52:27;;;;;;;3.10;2.80;;;29.90;65.90;;;;;;4974041;28;20433;-65
2023/05/26 10:54:53;;;;;;;3.63;3.10;;;30.00;67.80;;;;;;4973436;28;20961;-68
2023/05/26 10:57:32;;;;;;;4.10;3.33;;;30.20;67.60;;;;;;4971502;28;20851;-65
2023/05/26 11:00:16;;;;;;;2.90;2.70;;;29.90;64.40;;;;;;4993238;28;20419;-65
2023/05/26 11:02:42;;;;;;;4.17;3.30;;;29.50;65.70;;;;;;4984217;28;20440;-65
2023/05/26 11:05:31;;;;;;;3.67;3.47;;;29.40;65.80;;;;;;4973386;28;20840;-65
2023/05/26 11:07:57;;;;;;;3.53;3.23;;;29.30;66.50;;;;;;4976717;28;20522;-64
2023/05/26 11:10:23;;;;;;;4.00;3.30;;;29.00;68.00;;;;;;4977978;28;20416;-62
2023/05/26 11:12:54;;;;;;;3.83;3.40;;;28.60;69.80;;;;;;4977168;28;20401;-64
2023/05/26 11:15:30;;;;;;;3.83;3.40;;;28.00;69.20;;;;;;4977353;28;20192;-63
2023/05/26 11:18:08;;;;;;;4.27;2.80;;;27.10;72.90;;;;;;4977664;28;20431;-67
2023/05/26 11:20:34;;;;;;;3.60;3.30;;;26.50;73.20;;;;;;4977336;28;20436;-62
2023/05/26 11:23:01;;;;;;;3.63;3.23;;;26.00;74.90;;;;;;4994007;28;20433;-64
2023/05/26 11:25:27;;;;;;;3.83;3.20;;;25.50;76.30;;;;;;4982283;28;20414;-65
2023/05/26 11:27:53;;;;;;;3.27;2.97;;;25.20;77.00;;;;;;4977826;28;20774;-65
2023/05/26 11:30:19;;;;;;;6.00;3.57;;;25.00;78.60;;;;;;4977471;28;20201;-67
2023/05/26 11:32:50;;;;;;;3.13;2.63;;;24.70;79.20;;;;;;4977676;28;20170;-68
2023/05/26 11:35:27;;;;;;;3.00;2.80;;;24.60;80.00;;;;;;4995595;28;20418;-66
2023/05/26 11:37:53;;;;;;;3.47;3.20;;;24.50;81.40;;;;;;4996990;28;20440;-69
2023/05/26 11:40:19;;;;;;;2.60;2.40;;;24.50;84.50;;;;;;4996391;28;20434;-65
2023/05/26 11:42:46;;;;;;;4.03;3.37;;;24.60;82.60;;;;;;4984676;28;20474;-65
2023/05/26 11:45:12;;;;;;;2.80;2.60;;;24.80;82.80;;;;;;4976969;28;20431;-64
2023/05/26 11:47:38;;;;;;;2.90;2.70;;;24.80;80.80;;;;;;4977365;28;20422;-66
2023/05/26 11:50:08;;;;;;;2.33;2.17;;;24.60;81.30;;;;;;4977330;28;20949;-65
2023/05/26 11:52:34;;;;;;;3.03;2.53;;;24.60;82.10;;;;;;4992057;28;20183;-65
2023/05/26 11:55:00;;;;;;;3.43;2.80;;;24.60;81.90;;;;;;4959488;28;20476;-65
2023/05/26 11:57:31;;;;;;;2.77;2.53;;;24.50;79.40;;;;;;4977209;28;20180;-66
2023/05/26 11:59:57;;;;;;;2.93;2.73;;;24.40;78.10;;;;;;4976892;28;20199;-65
2023/05/26 12:02:23;;;;;;;3.17;2.93;;;24.10;78.70;;;;;;4976754;28;20438;-63
2023/05/26 12:04:48;;;;;;;2.53;2.33;;;23.90;79.60;;;;;;4976182;28;20492;-62
2023/05/26 12:07:26;;;;;;;2.80;2.60;;;23.80;80.00;;;;;;4991627;28;20275;-63
2023/05/26 12:10:05;;;;;;;2.67;2.47;;;23.90;80.20;;;;;;4996486;28;20230;-62
2023/05/26 12:12:33;;;;;;;3.40;2.47;;;24.00;79.20;;;;;;4996312;28;20418;-63
2023/05/26 12:15:05;;;;;;;2.47;2.27;;;23.80;80.00;;;;;;4995771;28;20408;-62
2023/05/26 12:17:31;;;;;;;2.60;2.40;;;23.70;79.90;;;;;;4996103;28;20399;-62
2023/05/26 12:19:58;;;;;;;2.50;2.30;;;23.60;80.60;;;;;;4996109;28;20386;-64
2023/05/26 12:22:27;;;;;;;3.20;3.00;;;23.70;81.40;;;;;;4976771;28;20218;-63
2023/05/26 12:24:59;;;;;;;2.60;2.40;;;23.80;81.10;;;;;;4976297;28;20427;-65
2023/05/26 12:27:35;;;;;;;2.30;2.03;;;23.80;80.20;;;;;;4975597;28;20408;-65
2023/05/26 12:30:26;;;;;;;3.33;3.03;;;23.80;79.70;;;;;;4974489;28;20413;-65
2023/05/26 12:32:52;;;;;;;2.70;2.37;;;23.80;79.30;;;;;;4959910;28;20513;-64
2023/05/26 12:35:19;;;;;;;2.73;2.53;;;23.70;80.00;;;;;;4993272;28;20529;-64
2023/05/26 12:37:45;;;;;;;2.00;1.90;;;23.70;80.70;;;;;;4993978;28;20415;-62
2023/05/26 12:40:11;;;;;;;4.27;3.00;;;23.80;82.40;;;;;;4993726;28;20428;-63
2023/05/26 12:42:37;;;;;;;3.00;2.77;;;23.90;80.10;;;;;;4994444;28;20465;-63
2023/05/26 12:45:04;;;;;;;4.10;3.07;;;23.90;80.00;;;;;;4995146;28;20195;-63
2023/05/26 12:47:30;;;;;;;2.70;2.50;;;24.00;79.30;;;;;;4994054;28;20489;-62
2023/05/26 12:49:56;;;;;;;3.53;2.90;;;23.90;79.00;;;;;;4995689;28;20447;-65
2023/05/26 12:52:22;;;;;;;3.10;2.90;;;23.90;80.50;;;;;;4995961;28;20176;-65
2023/05/26 12:54:47;;;;;;;3.37;3.07;;;24.00;79.50;;;;;;4995415;28;20312;-64
2023/05/26 12:57:13;;;;;;;2.63;2.47;;;24.00;79.10;;;;;;4995407;28;20425;-65
2023/05/26 12:59:39;;;;;;;2.60;2.40;;;24.00;78.70;;;;;;4995222;28;20586;-64
2023/05/26 13:02:06;;;;;;;5.07;2.70;;;23.90;78.00;;;;;;4994282;28;20561;-65
2023/05/26 13:04:31;;;;;;;3.13;2.47;;;23.60;77.70;;;;;;4975523;28;20398;-64
2023/05/26 13:06:57;;;;;;;2.13;2.03;;;23.60;78.40;;;;;;4975991;28;20494;-64
2023/05/26 13:09:26;;;;;;;2.20;2.00;;;23.50;78.30;;;;;;4975986;28;20181;-64
2023/05/26 13:11:51;;;;;;;2.47;2.30;;;23.50;78.80;;;;;;4975921;28;20186;-64
2023/05/26 13:14:18;;;;;;;2.30;2.17;;;23.50;78.50;;;;;;4975339;28;20591;-64
2023/05/26 13:16:44;;;;;;;2.57;2.40;;;23.50;78.80;;;;;;4975571;28;20168;-65
2023/05/26 13:19:10;;;;;;;3.33;2.93;;;23.60;78.50;;;;;;4981136;28;20427;-64
2023/05/26 13:21:36;;;;;;;2.67;2.47;;;23.60;78.10;;;;;;4994017;28;20931;-64
2023/05/26 13:24:02;;;;;;;3.23;2.33;;;23.60;77.80;;;;;;4975085;28;20172;-63
2023/05/26 13:26:28;;;;;;;2.27;2.10;;;23.60;79.00;;;;;;4975581;28;20755;-64
2023/05/26 13:28:54;;;;;;;3.33;2.30;;;23.60;78.60;;;;;;4975141;28;20467;-64
2023/05/26 13:31:20;;;;;;;3.30;2.60;;;23.60;78.60;;;;;;4975292;28;20379;-64
2023/05/26 13:33:46;;;;;;;2.27;2.10;;;23.60;80.00;;;;;;4993043;28;20262;-64
2023/05/26 13:36:11;;;;;;;3.20;2.90;;;23.70;78.80;;;;;;4994642;28;20578;-65
2023/05/26 13:38:37;;;;;;;2.63;2.47;;;23.70;79.50;;;;;;4994815;28;20179;-64
2023/05/26 13:41:03;;;;;;;3.33;2.70;;;23.80;78.90;;;;;;4994560;28;20200;-62
2023/05/26 13:43:29;;;;;;;2.70;2.50;;;23.90;79.00;;;;;;4994236;28;20524;-64
2023/05/26 13:45:55;;;;;;;3.20;2.90;;;23.90;78.00;;;;;;4994552;28;20443;-63
2023/05/26 13:48:24;;;;;;;2.40;2.20;;;23.90;78.40;;;;;;4977326;28;20423;-65
2023/05/26 13:50:50;;;;;;;2.90;2.70;;;23.90;77.80;;;;;;4974873;28;20177;-63
2023/05/26 13:53:15;;;;;;;2.80;2.60;;;23.80;77.70;;;;;;4974855;28;20933;-64
2023/05/26 13:55:41;;;;;;;2.57;2.37;;;23.70;78.60;;;;;;4974893;28;20939;-64
2023/05/26 13:58:07;;;;;;;8.03;2.47;;;23.70;78.00;;;;;;4975245;28;20251;-63
2023/05/26 14:00:33;;;;;;;2.90;2.57;;;23.70;79.70;;;;;;4974908;28;20570;-64
2023/05/26 14:02:58;;;;;;;3.10;2.40;;;23.70;79.00;;;;;;4990689;28;20179;-65
2023/05/26 14:05:24;;;;;;;3.50;2.30;;;23.80;78.30;;;;;;4994097;28;20203;-64
2023/05/26 14:07:50;;;;;;;2.27;2.07;;;23.90;78.50;;;;;;4994675;28;20538;-63
2023/05/26 14:10:16;;;;;;;2.53;2.33;;;23.90;79.60;;;;;;4994215;28;20168;-64
2023/05/26 14:12:41;;;;;;;4.50;2.77;;;24.00;78.90;;;;;;4994510;28;20174;-63
2023/05/26 14:15:07;;;;;;;2.40;2.20;;;24.10;78.40;;;;;;4980502;28;20271;-64
2023/05/26 14:17:33;;;;;;;2.60;2.40;;;24.10;78.90;;;;;;4975009;28;20179;-65
2023/05/26 14:19:59;;;;;;;2.83;2.57;;;24.10;77.70;;;;;;4974790;28;20545;-63
2023/05/26 14:22:26;;;;;;;2.30;2.20;;;24.10;78.40;;;;;;4974754;28;20214;-65
2023/05/26 14:24:52;;;;;;;4.07;3.07;;;24.00;79.80;;;;;;4974222;28;20490;-63
2023/05/26 14:27:18;;;;;;;2.50;2.30;;;24.10;78.50;;;;;;4974917;28;20454;-65
2023/05/26 14:29:44;;;;;;;3.00;2.13;;;24.00;78.20;;;;;;4986824;28;20805;-64
2023/05/26 14:32:10;;;;;;;2.80;2.60;;;24.00;78.70;;;;;;4994154;28;20206;-65
2023/05/26 14:34:36;;;;;;;3.70;3.00;;;24.00;77.90;;;;;;4993591;28;20433;-64
2023/05/26 14:37:02;;;;;;;2.40;2.20;;;23.90;78.60;;;;;;4993876;28;20442;-64
2023/05/26 14:39:28;;;;;;;2.33;2.20;;;23.80;77.10;;;;;;4994079;28;20438;-64
2023/05/26 14:41:53;;;;;;;3.20;3.00;;;23.70;77.20;;;;;;4992620;28;20257;-64
2023/05/26 14:44:19;;;;;;;2.67;2.30;;;23.60;77.40;;;;;;4982030;28;20443;-65
2023/05/26 14:46:44;;;;;;;2.80;2.23;;;23.50;77.30;;;;;;4974506;28;20215;-63
2023/05/26 14:49:10;;;;;;;3.50;2.90;;;23.50;77.60;;;;;;4956905;28;20531;-63
2023/05/26 14:51:36;;;;;;;2.73;2.30;;;23.50;77.40;;;;;;4974364;28;20179;-64
2023/05/26 14:54:03;;;;;;;2.50;2.30;;;23.50;76.20;;;;;;4956009;28;20670;-63
2023/05/26 14:56:29;;;;;;;1.97;1.87;;;23.50;76.60;;;;;;4973954;28;20502;-63
2023/05/26 14:58:55;;;;;;;2.03;1.90;;;23.50;76.80;;;;;;4983470;28;20518;-64
2023/05/26 15:01:21;;;;;;;2.97;2.70;;;23.50;75.70;;;;;;4993503;28;20199;-64
2023/05/26 15:03:46;;;;;;;2.10;1.90;;;23.50;74.50;;;;;;4993126;28;20816;-65
2023/05/26 15:06:15;;;;;;;1.83;1.70;;;23.50;75.20;;;;;;4993286;28;20202;-63
2023/05/26 15:08:44;;;;;;;2.70;2.50;;;23.50;75.90;;;;;;4993613;28;20250;-64
2023/05/26 15:11:10;;;;;;;2.00;1.90;;;23.50;75.70;;;;;;4976060;28;20418;-64
2023/05/26 15:13:36;;;;;;;2.50;2.30;;;23.50;75.40;;;;;;4984106;28;20893;-64
2023/05/26 15:16:02;;;;;;;2.90;2.70;;;23.50;75.80;;;;;;4973658;28;20227;-63
2023/05/26 15:18:28;;;;;;;3.97;2.87;;;23.50;77.10;;;;;;4973997;28;20184;-64
2023/05/26 15:20:59;;;;;;;2.67;2.47;;;23.40;77.70;;;;;;4973970;28;20409;-64
2023/05/26 15:23:25;;;;;;;2.37;2.27;;;23.50;78.50;;;;;;4973478;28;20665;-64
2023/05/26 15:25:51;;;;;;;2.80;2.60;;;23.50;78.50;;;;;;4973943;28;20419;-63
2023/05/26 15:28:17;;;;;;;2.90;2.40;;;23.50;78.90;;;;;;4960021;28;20522;-64
2023/05/26 15:30:42;;;;;;;1.90;1.80;;;23.50;77.90;;;;;;4958025;28;20169;-63
2023/05/26 15:33:08;;;;;;;2.80;2.60;;;23.50;77.30;;;;;;4996010;28;20389;-63
2023/05/26 15:35:33;;;;;;;2.87;2.67;;;23.50;78.00;;;;;;4994614;28;20200;-62
2023/05/26 15:37:59;;;;;;;6.67;3.17;;;23.50;78.90;;;;;;4993873;28;20183;-62
2023/05/26 15:40:26;;;;;;;2.50;2.30;;;23.40;80.20;;;;;;4992637;28;20183;-65
2023/05/26 15:42:52;;;;;;;2.43;2.23;;;23.40;79.10;;;;;;4993112;28;20289;-65
2023/05/26 15:45:17;;;;;;;2.27;2.07;;;23.40;79.00;;;;;;4993034;28;20506;-64
2023/05/26 15:47:43;;;;;;;2.67;2.23;;;23.40;78.30;;;;;;4993380;28;20191;-64
2023/05/26 15:50:12;;;;;;;2.77;2.23;;;23.50;77.10;;;;;;4993321;28;20167;-63
2023/05/26 15:52:37;;;;;;;3.50;2.60;;;23.50;76.60;;;;;;4955427;28;20192;-62
2023/05/26 15:55:04;;;;;;;2.80;2.60;;;23.50;76.20;;;;;;4957705;28;20433;-63
2023/05/26 15:57:29;;;;;;;4.77;2.50;;;23.50;74.40;;;;;;4958107;29;20188;-64
2023/05/26 15:59:55;;;;;;;3.83;2.90;;;23.40;73.90;;;;;;4957904;29;20409;-64
2023/05/26 16:02:22;;;;;;;2.60;2.40;;;23.30;74.00;;;;;;4957952;29;20690;-63
2023/05/26 16:04:48;;;;;;;2.50;2.30;;;23.30;73.30;;;;;;4957436;28;20251;-63
2023/05/26 16:07:15;;;;;;;2.77;2.57;;;23.30;73.10;;;;;;4994338;28;20439;-65
2023/05/26 16:09:42;;;;;;;2.30;2.20;;;23.30;74.20;;;;;;4996430;28;20417;-66
2023/05/26 16:12:08;;;;;;;3.73;2.63;;;23.20;76.00;;;;;;4996603;28;20815;-66
2023/05/26 16:14:34;;;;;;;3.23;2.90;;;23.20;77.40;;;;;;4996208;28;20435;-64
2023/05/26 16:16:59;;;;;;;3.10;2.77;;;23.20;78.30;;;;;;4996279;28;20178;-64
2023/05/26 16:19:25;;;;;;;2.33;2.23;;;23.10;78.40;;;;;;4996344;28;20657;-61
2023/05/26 16:21:50;;;;;;;2.83;2.43;;;23.10;78.80;;;;;;4978448;28;20262;-64
2023/05/26 16:24:16;;;;;;;3.10;2.80;;;23.10;77.90;;;;;;4976340;28;20594;-64
2023/05/26 16:26:42;;;;;;;2.63;2.43;;;23.10;76.20;;;;;;4976537;28;20200;-62
2023/05/26 16:29:08;;;;;;;2.30;2.10;;;23.20;76.90;;;;;;4978193;28;20303;-66
2023/05/26 16:31:34;;;;;;;2.60;2.40;;;23.20;76.00;;;;;;4976576;28;20498;-64
2023/05/26 16:33:59;;;;;;;2.90;2.67;;;23.20;77.60;;;;;;4976162;28;20407;-64
2023/05/26 16:36:25;;;;;;;2.50;2.00;;;23.10;77.30;;;;;;4992075;28;20195;-65
2023/05/26 16:38:51;;;;;;;2.30;2.10;;;23.10;78.10;;;;;;4984312;28;20207;-63
2023/05/26 16:41:16;;;;;;;2.70;2.50;;;23.00;79.20;;;;;;4976338;28;20231;-66
2023/05/26 16:43:42;;;;;;;2.50;2.23;;;23.00;79.20;;;;;;4976148;28;20245;-68
2023/05/26 16:46:07;;;;;;;3.33;2.90;;;22.90;79.90;;;;;;4959323;28;20202;-64
2023/05/26 16:48:33;;;;;;;2.67;2.47;;;22.90;79.60;;;;;;4959198;28;20176;-68
2023/05/26 16:50:59;;;;;;;3.00;2.70;;;22.90;79.20;;;;;;4990904;28;20179;-65